Airfield :
LOGIN :

Register | Disclaimer

   EN    FR    IT 

 










Legend :    VFR   Marginal VFR   IFR   Intensive IFR   Very Intensive IFR
Visi :
Ceiling :
>= 8 km
>= 3000ft
5 to 8 km
1000 to 3000 ft
1500m to 5 km
500 to 1000 ft
800 to 1500m
200 to 500 ft
< 800m
< 200 ft
Symbols :   Thunderstorms  Fog  Heavy snow  Heavy precipitations  Wind > 20 kt
SIGMETs :     Misc.  Thunderstorms  Icing  Turbulence  Mountain Waves  Volcanic Ashes







- Airport Elevation : 1504 ft
- IATA code : PNA


LEPP - Noain Pamplona

CURRENT METAR :
  • 230500Z 29004KT 230V330 9999 FEW050 24/08 Q1019

EXPIRED METARs :
  • 230430Z 08006KT 050V120 CAVOK 27/06 Q1018
  • 230400Z VRB02KT CAVOK 21/11 Q1019
  • 230330Z VRB01KT CAVOK 22/11 Q1019
  • 230300Z AUTO 27004KT 9999 NCD 25/10 Q1019
  • 230230Z AUTO 24002KT 9999 NCD 23/11 Q1019

TAF TAF LEPP
Valid from the 23 at 03:00 until the 24 at 03:00 UTC


230200Z 2303/2403 VRB05KT CAVOK TX39/2315Z TN23/2305Z
BECMG 2308/2310 16015KT
BECMG 2317/2320 VRB05KT
PROB30
TEMPO 2317/2321 33015G35KT TSRA SCT030CB
No reported NOTAMs for that airfield.
2 SIGMETs reported for the Madrid FIR (LECM) :
 
Embedded thunderstorms
LECM SIGMET 2 VALID 230430/230700 LEVA
LECM MADRID FIR/UIR EMBD TS OBS AT 0453Z WI N3748 W00452 - N3742 W00629 - N39 W00634 - N39 W00444 - N3748 W00452 TOP FL360 MOV N 15KT INTSF=
Embedded thunderstorms
LECM SIGMET 1 VALID 230200/230600 LEVA
LECM MADRID FIR/UIR EMBD TS FCST WI N4130 W006 - N4150 W00320 - N39 W00310 - N39 W007 - N4130 W006 TOP FL380 MOV N 10KT NC=



MET'MAP, your aeronautical weather chart ! - Copyright ORBIFLY December 2007 - Disclaimer

ORBIFLY MET'MAP TEAM :

Programming & Development : Alexandra Zaïnal
Concept & Development : Baudouin d'Aumeries
Co-Development & Prog : Marc-Olivier Méhu
Technical & hardware support : Manuel Goepfert

Contact : metmap@orbifly.com




SOURCES & CREDITS :

   NOAA